Terminal Aerodrome Forecast
Issued by NWS

Home | Current Version | Previous Version | Text Only | Print | Product List | Glossary On
Versions: 1 2 3 4 5 6 7 8 9 10 11 12 13 14
000
FTUS43 KUNR 022328
TAFGCC
TAF
KGCC 022328Z 0300/0324 01010KT P6SM SCT120
      TEMPO 0300/0303 -TSRA BKN080CB
     FM030300 01008KT P6SM SCT040 BKN100
     FM031000 VRB05KT P6SM BKN040=

USA.gov is the U.S. government's official web portal to all federal, state and local government web resources and services.